aviador You're here:

KWAL Decoded Metar

WALLOPS ISLAND in VA, USA
Report Time2018-02-18 16:54:00
UTC Time2018-02-18 17:53:03
Flight Rules vfr VFR
Wind300° at 07 kt
W.Decomp.*RWY 28: 6.0 kt HW 3.6 kt RCW
RWY 35: 5.4 kt HW 4.4 kt LCW
RWY 04: 0.1 kt HW 7 kt LCW
W.Rank300° ranks 12
Current wind is below 300° avg. (7.5)
Visibility9999 m
Phenomena:N/A
Clouds:Scattered 042 Hf
Expected CloudBase > 4,400 ft AGL from Temp-Dew spread
CeilingNone
Temp11°C (ISA -4)
Dew Point00°C (47% RH)
AAT6.5°C
QNH1030 hPa
Density Alt-909 ft
Elevation46 ft
Report Wrong Elevation
Raw Report
KWAL 181654Z AUTO 30007KT 10SM SCT042 11/00 A3041 RMK AO2 SLP295
T01060000=

Extra information for KWAL:More info

Metar Taf Metar & Taf Last 4 Metars F.Rules Stats Wind Profile Meteogram Temp Stats Airport Information Weather charts Add Link Nearby VenuesMetar ALERT Operation Metar Decoded Social comments

AIRNAV info for KWAL